createdAt,value
2023-03-20T00:00:00.000Z,10.04
2023-03-20T00:15:00.000Z,10.55
2023-03-20T00:30:00.000Z,10.63
2023-03-20T00:45:00.000Z,10.91
2023-03-20T01:00:00.000Z,11.15
2023-03-20T01:15:00.000Z,11.22
2023-03-20T01:30:00.000Z,11.16
2023-03-20T01:45:00.000Z,11.03
2023-03-20T02:00:00.000Z,10.84
2023-03-20T02:15:00.000Z,10.63
2023-03-20T02:30:00.000Z,10.54
2023-03-20T02:45:00.000Z,10.31
2023-03-20T03:00:00.000Z,10.28
2023-03-20T03:15:00.000Z,10.22
2023-03-20T03:30:00.000Z,10.14
2023-03-20T03:45:00.000Z,10.29
2023-03-20T04:00:00.000Z,10.56
2023-03-20T04:15:00.000Z,10.57
2023-03-20T04:30:00.000Z,10.57
2023-03-20T04:45:00.000Z,10.52
2023-03-20T05:00:00.000Z,10.48
2023-03-20T05:15:00.000Z,10.43
2023-03-20T05:30:00.000Z,10.43
2023-03-20T05:45:00.000Z,10.48
2023-03-20T06:00:00.000Z,10.51
2023-03-20T06:15:00.000Z,10.58
2023-03-20T06:30:00.000Z,10.62
2023-03-20T06:45:00.000Z,10.63
2023-03-20T07:00:00.000Z,10.59
2023-03-20T07:15:00.000Z,10.68
2023-03-20T07:30:00.000Z,10.78
2023-03-20T07:45:00.000Z,10.83
2023-03-20T08:00:00.000Z,10.96
2023-03-20T08:15:00.000Z,11.1
2023-03-20T08:30:00.000Z,11.22
2023-03-20T08:45:00.000Z,11.34
2023-03-20T09:00:00.000Z,11.36
2023-03-20T09:15:00.000Z,11.32
2023-03-20T09:30:00.000Z,11.35
2023-03-20T09:45:00.000Z,10.96
2023-03-20T10:00:00.000Z,11.24
2023-03-20T10:15:00.000Z,11.65
2023-03-20T10:30:00.000Z,11.81
2023-03-20T10:45:00.000Z,12.46
2023-03-20T11:00:00.000Z,13.76
2023-03-20T11:15:00.000Z,14.28
2023-03-20T11:30:00.000Z,13.99
2023-03-20T11:45:00.000Z,14.34
2023-03-20T12:00:00.000Z,14.32
2023-03-20T12:15:00.000Z,14.63
2023-03-20T12:30:00.000Z,15.11
2023-03-20T12:45:00.000Z,15.01
2023-03-20T13:00:00.000Z,15.01
2023-03-20T13:15:00.000Z,15.2
2023-03-20T13:30:00.000Z,15.65
2023-03-20T13:45:00.000Z,15.78
2023-03-20T14:00:00.000Z,15.51
2023-03-20T14:15:00.000Z,15.2
2023-03-20T14:30:00.000Z,15.08
2023-03-20T14:45:00.000Z,15.36
2023-03-20T15:00:00.000Z,15.26
2023-03-20T15:15:00.000Z,15.07
2023-03-20T15:30:00.000Z,14.81
2023-03-20T15:45:00.000Z,14.6
2023-03-20T16:00:00.000Z,14.43
2023-03-20T16:15:00.000Z,14.1
2023-03-20T16:30:00.000Z,13.92
2023-03-20T16:45:00.000Z,13.6
2023-03-20T17:00:00.000Z,13.41
2023-03-20T17:15:00.000Z,13.16
2023-03-20T17:30:00.000Z,12.84
2023-03-20T17:45:00.000Z,12.53
2023-03-20T18:00:00.000Z,12.2
2023-03-20T18:15:00.000Z,11.81
2023-03-20T18:30:00.000Z,11.5
2023-03-20T18:45:00.000Z,11.21
2023-03-20T19:00:00.000Z,10.92
2023-03-20T19:15:00.000Z,10.62
2023-03-20T19:30:00.000Z,10.5
2023-03-20T19:45:00.000Z,10.63
2023-03-20T20:00:00.000Z,10.75
2023-03-20T20:15:00.000Z,10.86
2023-03-20T20:30:00.000Z,10.73
2023-03-20T20:45:00.000Z,10.47
2023-03-20T21:00:00.000Z,10.26
2023-03-20T21:15:00.000Z,10.24
2023-03-20T21:45:00.000Z,10.35
2023-03-20T22:30:00.000Z,10.11
2023-03-20T22:45:00.000Z,10.01
2023-03-20T23:00:00.000Z,9.97
2023-03-20T23:15:00.000Z,9.96
2023-03-20T23:30:00.000Z,9.99
2023-03-20T23:45:00.000Z,9.85
